Time;durP1;ratioP1;P1;durP2;ratioP2;P2;SDS_P1;SDS_P2;PMS_P1;PMS_P2;Temp;Humidity;BMP_temperature;BMP_pressure;BME280_temperature;BME280_humidity;BME280_pressure;Samples;Min_cycle;Max_cycle;Signal;HPM_P1;HPM_P2
2021/06/30 00:00:13;;;;;;;58.43;2.60;;;15.50;99.90;;;;;;5053468;28;20544;-76
2021/06/30 00:02:40;;;;;;;58.27;2.63;;;15.40;99.90;;;;;;5051560;28;20945;-76
2021/06/30 00:05:08;;;;;;;58.50;2.73;;;15.40;99.90;;;;;;5053016;28;20455;-76
2021/06/30 00:07:35;;;;;;;58.17;2.70;;;15.40;99.90;;;;;;5053199;28;20540;-76
2021/06/30 00:10:04;;;;;;;58.53;2.73;;;15.40;99.90;;;;;;5053013;28;20483;-76
2021/06/30 00:12:31;;;;;;;58.27;2.63;;;15.40;99.90;;;;;;5052716;28;20497;-76
2021/06/30 00:14:57;;;;;;;58.33;2.77;;;15.30;99.90;;;;;;5053094;28;20485;-76
2021/06/30 00:17:26;;;;;;;58.23;2.80;;;15.30;99.90;;;;;;5052862;28;21034;-76
2021/06/30 00:19:52;;;;;;;58.20;2.70;;;15.30;99.90;;;;;;5053069;28;20453;-76
2021/06/30 00:22:19;;;;;;;58.47;2.80;;;15.30;99.90;;;;;;5052536;28;20540;-76
2021/06/30 00:24:46;;;;;;;58.47;2.67;;;15.40;99.90;;;;;;5052657;28;20482;-76
2021/06/30 00:27:13;;;;;;;58.47;2.83;;;15.30;99.90;;;;;;5052614;28;20540;-76
2021/06/30 00:29:40;;;;;;;58.50;2.70;;;15.30;99.90;;;;;;5052840;28;20494;-76
2021/06/30 00:32:08;;;;;;;58.17;2.60;;;15.30;99.90;;;;;;5052517;28;20492;-76
2021/06/30 00:34:36;;;;;;;58.30;2.73;;;15.30;99.90;;;;;;5051281;28;20515;-76
2021/06/30 00:37:03;;;;;;;58.27;2.80;;;15.30;99.90;;;;;;5052358;28;20546;-76
2021/06/30 00:39:30;;;;;;;58.03;3.00;;;15.30;99.90;;;;;;5052448;28;20480;-76
2021/06/30 00:41:57;;;;;;;58.20;2.70;;;15.40;99.90;;;;;;5052437;28;20527;-76
2021/06/30 00:44:24;;;;;;;58.27;2.70;;;15.40;99.90;;;;;;5052593;28;20886;-77
2021/06/30 00:46:51;;;;;;;58.47;2.93;;;15.40;99.90;;;;;;5054618;28;20462;-76
2021/06/30 00:49:18;;;;;;;58.17;2.70;;;15.40;99.90;;;;;;5055695;28;20476;-76
2021/06/30 00:51:46;;;;;;;58.27;2.70;;;15.40;99.90;;;;;;5054435;28;20459;-76
2021/06/30 00:54:13;;;;;;;58.33;3.10;;;15.40;99.90;;;;;;5054446;28;20549;-77
2021/06/30 00:56:40;;;;;;;58.47;2.80;;;15.50;99.90;;;;;;5055295;28;20449;-76
2021/06/30 00:59:07;;;;;;;58.27;2.80;;;15.50;99.90;;;;;;5055812;28;20516;-76
2021/06/30 01:01:34;;;;;;;59.30;2.90;;;15.50;99.90;;;;;;5055322;28;20539;-77
2021/06/30 01:04:01;;;;;;;58.60;2.90;;;15.60;99.90;;;;;;5047248;28;20509;-76
2021/06/30 01:06:28;;;;;;;58.47;2.60;;;15.60;99.90;;;;;;5031787;28;20529;-76
2021/06/30 01:09:02;;;;;;;58.40;2.70;;;15.60;99.90;;;;;;5032034;28;20533;-76
2021/06/30 01:11:30;;;;;;;57.87;2.80;;;15.60;99.90;;;;;;5032297;28;20828;-75
2021/06/30 01:13:57;;;;;;;58.17;2.70;;;15.60;99.90;;;;;;5032001;28;20561;-75
2021/06/30 01:16:24;;;;;;;58.13;3.00;;;15.60;99.90;;;;;;5032113;28;20576;-76
2021/06/30 01:18:51;;;;;;;58.17;2.80;;;15.70;99.90;;;;;;5031739;28;20541;-76
2021/06/30 01:21:18;;;;;;;58.20;2.60;;;15.70;99.90;;;;;;5031817;28;20520;-76
2021/06/30 01:23:46;;;;;;;58.70;3.30;;;15.70;99.90;;;;;;5031479;28;20925;-76
2021/06/30 01:26:14;;;;;;;58.17;2.70;;;15.70;99.90;;;;;;5032006;28;20472;-76
2021/06/30 01:28:41;;;;;;;58.13;2.60;;;15.70;99.90;;;;;;5031873;28;20864;-76
2021/06/30 01:31:09;;;;;;;58.47;2.53;;;15.70;99.90;;;;;;5031728;28;20482;-76
2021/06/30 01:33:36;;;;;;;58.07;2.77;;;15.70;99.90;;;;;;5031342;28;20529;-75
2021/06/30 01:36:05;;;;;;;58.27;2.60;;;15.60;99.90;;;;;;5030701;28;20496;-76
2021/06/30 01:38:32;;;;;;;58.30;2.57;;;15.60;99.90;;;;;;5047656;28;20449;-76
2021/06/30 01:41:01;;;;;;;57.97;2.50;;;15.60;99.90;;;;;;5051550;28;21006;-76
2021/06/30 01:43:28;;;;;;;58.27;2.60;;;15.50;99.90;;;;;;5051314;28;20864;-75
2021/06/30 01:45:56;;;;;;;58.37;2.50;;;15.40;99.90;;;;;;5051431;28;20857;-76
2021/06/30 01:48:23;;;;;;;58.27;2.67;;;15.40;99.90;;;;;;5051460;28;21028;-75
2021/06/30 01:50:51;;;;;;;58.00;2.53;;;15.30;99.90;;;;;;5051621;28;20455;-76
2021/06/30 01:53:18;;;;;;;58.27;2.80;;;15.30;99.90;;;;;;5051280;28;20505;-76
2021/06/30 01:55:45;;;;;;;58.27;2.67;;;15.20;99.90;;;;;;5051518;28;21039;-77
2021/06/30 01:58:17;;;;;;;58.50;2.80;;;15.20;99.90;;;;;;5055784;28;20447;-76
2021/06/30 02:00:44;;;;;;;58.50;2.80;;;15.20;99.90;;;;;;5055429;28;20453;-76
2021/06/30 02:03:11;;;;;;;58.27;2.67;;;15.20;99.90;;;;;;5055354;28;20503;-76
2021/06/30 02:05:38;;;;;;;58.17;2.60;;;15.10;99.90;;;;;;5052151;28;20444;-76
2021/06/30 02:08:05;;;;;;;58.27;2.60;;;15.10;99.90;;;;;;5035396;28;20566;-77
2021/06/30 02:10:32;;;;;;;58.17;2.80;;;15.00;99.90;;;;;;5035787;28;21166;-77
2021/06/30 02:12:59;;;;;;;58.70;2.67;;;15.00;99.90;;;;;;5035067;28;20916;-77
2021/06/30 02:15:29;;;;;;;58.57;2.80;;;15.00;99.90;;;;;;5035466;28;20579;-76
2021/06/30 02:17:59;;;;;;;57.80;2.73;;;14.90;99.90;;;;;;5035354;28;20452;-76
2021/06/30 02:20:27;;;;;;;58.40;2.87;;;14.90;99.90;;;;;;5035383;28;20539;-76
2021/06/30 02:22:55;;;;;;;58.17;2.70;;;14.90;99.90;;;;;;5034650;28;20488;-76
2021/06/30 02:25:23;;;;;;;58.27;2.60;;;14.80;99.90;;;;;;5034951;28;20531;-75
2021/06/30 02:27:51;;;;;;;58.60;2.70;;;14.80;99.90;;;;;;5034931;28;20560;-75
2021/06/30 02:30:20;;;;;;;58.37;2.70;;;14.80;99.90;;;;;;5035203;28;20871;-76
2021/06/30 02:32:48;;;;;;;58.23;2.70;;;14.80;99.90;;;;;;5034728;28;20496;-76
2021/06/30 02:35:17;;;;;;;58.47;2.60;;;14.70;99.90;;;;;;5034749;28;20488;-76
2021/06/30 02:37:45;;;;;;;58.13;2.60;;;14.70;99.90;;;;;;5033615;28;20531;-76
2021/06/30 02:40:14;;;;;;;58.27;2.70;;;14.60;99.90;;;;;;5034443;28;20580;-76
2021/06/30 02:42:42;;;;;;;58.53;3.10;;;14.60;99.90;;;;;;5034419;28;20505;-76
2021/06/30 02:45:11;;;;;;;58.27;2.70;;;14.50;99.90;;;;;;5034842;28;20540;-77
2021/06/30 02:47:40;;;;;;;58.13;2.70;;;14.50;99.90;;;;;;5034800;28;20544;-77
2021/06/30 02:50:10;;;;;;;58.37;2.60;;;14.50;99.90;;;;;;5034735;28;20953;-77
2021/06/30 02:52:37;;;;;;;58.50;2.60;;;14.50;99.90;;;;;;5034082;28;20484;-77
2021/06/30 02:55:05;;;;;;;58.17;2.63;;;14.40;99.90;;;;;;5035909;28;20831;-78
2021/06/30 02:57:32;;;;;;;58.57;2.60;;;14.50;99.90;;;;;;5035596;28;20508;-77
2021/06/30 03:03:20;;;;;;;58.20;2.70;;;14.40;99.90;;;;;;5036488;28;20452;-77
2021/06/30 03:05:49;;;;;;;58.43;2.70;;;14.30;99.90;;;;;;5035941;28;20441;-77
2021/06/30 03:08:16;;;;;;;58.47;2.67;;;14.30;99.90;;;;;;5043321;28;20456;-77
2021/06/30 03:10:42;;;;;;;58.77;2.77;;;14.30;99.90;;;;;;5057944;28;20447;-78
2021/06/30 03:13:09;;;;;;;58.37;2.70;;;14.30;99.90;;;;;;5058422;28;20858;-78
2021/06/30 03:15:36;;;;;;;58.40;2.70;;;14.30;99.90;;;;;;5056117;28;20520;-77
2021/06/30 03:18:03;;;;;;;58.47;2.70;;;14.30;99.90;;;;;;5058163;28;20882;-77
2021/06/30 03:20:30;;;;;;;58.47;2.73;;;14.20;99.90;;;;;;5058664;28;20453;-78
2021/06/30 03:22:58;;;;;;;58.70;2.90;;;14.20;99.90;;;;;;5058600;28;20563;-78
2021/06/30 03:25:26;;;;;;;58.27;2.60;;;14.20;99.90;;;;;;5058514;28;20878;-78
2021/06/30 03:27:53;;;;;;;58.47;2.80;;;14.10;99.90;;;;;;5057092;28;20452;-78
2021/06/30 03:30:20;;;;;;;58.80;2.77;;;14.10;99.90;;;;;;5057082;28;20566;-78
2021/06/30 03:32:47;;;;;;;58.37;2.70;;;14.10;99.90;;;;;;5059034;28;20503;-77
2021/06/30 03:35:14;;;;;;;58.50;2.60;;;14.00;99.90;;;;;;5057947;28;20480;-78
2021/06/30 03:37:41;;;;;;;58.67;2.60;;;14.00;99.90;;;;;;5060004;28;20448;-78
2021/06/30 03:40:11;;;;;;;58.47;2.60;;;14.00;99.90;;;;;;5057481;28;20538;-78
2021/06/30 03:42:37;;;;;;;57.97;2.77;;;14.00;99.90;;;;;;5056147;28;20551;-77
2021/06/30 03:45:06;;;;;;;58.33;2.70;;;14.00;99.90;;;;;;5058520;28;20466;-78
2021/06/30 03:47:33;;;;;;;58.53;2.70;;;14.00;99.90;;;;;;5055634;28;20456;-77
2021/06/30 03:50:00;;;;;;;58.37;2.60;;;14.00;99.90;;;;;;5056669;28;20535;-78
2021/06/30 03:52:27;;;;;;;58.50;2.60;;;14.00;99.90;;;;;;5058453;28;20590;-77
2021/06/30 03:54:54;;;;;;;58.33;2.60;;;14.00;99.90;;;;;;5056149;28;20874;-77
2021/06/30 03:57:23;;;;;;;58.37;2.70;;;14.00;99.90;;;;;;5057618;28;21055;-78
2021/06/30 03:59:50;;;;;;;58.57;2.70;;;14.00;99.90;;;;;;5058576;28;20502;-78
2021/06/30 04:02:17;;;;;;;58.23;2.70;;;14.00;99.90;;;;;;5059141;28;20520;-78
2021/06/30 04:04:44;;;;;;;58.37;2.73;;;14.00;99.90;;;;;;5058002;28;20535;-77
2021/06/30 04:07:11;;;;;;;58.60;2.80;;;14.00;99.90;;;;;;5055967;28;20898;-78
2021/06/30 04:09:38;;;;;;;58.43;2.80;;;14.00;99.90;;;;;;5058186;28;20448;-77
2021/06/30 04:12:05;;;;;;;58.50;2.80;;;14.00;99.90;;;;;;5057413;28;20588;-78
2021/06/30 04:14:34;;;;;;;58.60;2.80;;;14.00;99.90;;;;;;5055231;28;20567;-78
2021/06/30 04:17:01;;;;;;;58.43;2.77;;;14.10;98.90;;;;;;5055945;28;20578;-78
2021/06/30 04:19:28;;;;;;;58.60;2.60;;;14.10;99.90;;;;;;5057529;28;20503;-77
2021/06/30 04:21:54;;;;;;;58.33;2.70;;;14.10;99.90;;;;;;5056768;28;20528;-78
2021/06/30 04:24:21;;;;;;;58.23;2.63;;;14.00;99.90;;;;;;5056066;28;20491;-78
2021/06/30 04:26:48;;;;;;;58.37;2.80;;;14.10;99.90;;;;;;5055333;28;20531;-78
2021/06/30 04:29:15;;;;;;;58.53;2.50;;;14.00;99.90;;;;;;5055484;28;20999;-77
2021/06/30 04:31:43;;;;;;;57.90;2.60;;;13.90;99.90;;;;;;5055900;28;20444;-77
2021/06/30 04:34:10;;;;;;;58.80;2.80;;;13.90;99.90;;;;;;5055705;28;20554;-77
2021/06/30 04:36:37;;;;;;;58.57;2.90;;;13.80;99.90;;;;;;5054827;28;20910;-78
2021/06/30 04:39:04;;;;;;;58.43;2.70;;;13.80;99.90;;;;;;5055076;28;20448;-78
2021/06/30 04:41:31;;;;;;;58.53;2.90;;;13.80;99.90;;;;;;5055227;28;20482;-78
2021/06/30 04:43:57;;;;;;;58.67;2.80;;;13.80;99.90;;;;;;5053815;28;20500;-77
2021/06/30 04:46:24;;;;;;;58.47;2.70;;;13.80;99.90;;;;;;5053941;28;20531;-78
2021/06/30 04:48:53;;;;;;;58.47;2.70;;;13.80;99.90;;;;;;5054656;28;20531;-77
2021/06/30 04:51:21;;;;;;;58.47;2.70;;;13.70;99.90;;;;;;5053356;28;20503;-77
2021/06/30 04:53:50;;;;;;;58.40;2.70;;;13.70;99.90;;;;;;5054370;28;20483;-78
2021/06/30 04:56:16;;;;;;;58.27;2.90;;;13.80;99.90;;;;;;5054160;28;20480;-77
2021/06/30 04:58:43;;;;;;;58.47;2.80;;;13.80;99.90;;;;;;5054046;28;20479;-77
2021/06/30 05:01:10;;;;;;;58.60;2.63;;;13.90;99.90;;;;;;5053693;28;20455;-77
2021/06/30 05:03:37;;;;;;;58.67;3.23;;;14.00;99.90;;;;;;5052954;28;20472;-77
2021/06/30 05:06:05;;;;;;;58.47;2.73;;;14.10;99.90;;;;;;5053694;28;20941;-77
2021/06/30 05:08:32;;;;;;;58.47;2.80;;;14.10;99.90;;;;;;5054708;28;20531;-77
2021/06/30 05:10:59;;;;;;;58.53;2.70;;;14.20;99.90;;;;;;5054369;28;20477;-77
2021/06/30 05:13:26;;;;;;;58.57;2.70;;;14.20;99.90;;;;;;5054457;28;20560;-77
2021/06/30 05:15:52;;;;;;;58.70;2.80;;;14.30;99.90;;;;;;5056213;28;20579;-78
2021/06/30 05:18:19;;;;;;;58.40;2.60;;;14.40;99.90;;;;;;5055127;28;20491;-77
2021/06/30 05:20:47;;;;;;;58.47;2.77;;;14.50;99.90;;;;;;5055951;28;20946;-77
2021/06/30 05:23:16;;;;;;;58.47;2.70;;;14.50;99.90;;;;;;5056112;28;20844;-77
2021/06/30 05:25:43;;;;;;;58.33;2.57;;;14.50;99.90;;;;;;5056983;28;20487;-77
2021/06/30 05:28:10;;;;;;;58.17;2.60;;;14.60;99.90;;;;;;5056112;28;20469;-77
2021/06/30 05:30:37;;;;;;;58.27;2.60;;;14.70;99.90;;;;;;5056459;28;20448;-77
2021/06/30 05:33:04;;;;;;;58.37;2.60;;;14.60;99.90;;;;;;5055398;28;20507;-77
2021/06/30 05:35:31;;;;;;;58.07;2.60;;;14.60;99.90;;;;;;5055238;28;20551;-77
2021/06/30 05:37:57;;;;;;;58.23;2.60;;;14.50;99.90;;;;;;5056103;28;20583;-77
2021/06/30 05:40:26;;;;;;;58.50;2.60;;;14.50;99.90;;;;;;5054968;28;20487;-77
2021/06/30 05:42:54;;;;;;;58.27;2.57;;;14.50;99.90;;;;;;5055834;28;21134;-77
2021/06/30 05:45:22;;;;;;;58.37;3.00;;;14.50;99.90;;;;;;5056883;28;20452;-77
2021/06/30 05:47:49;;;;;;;57.83;2.60;;;14.50;99.90;;;;;;5057779;28;20492;-78
2021/06/30 05:50:17;;;;;;;58.43;2.70;;;14.50;99.90;;;;;;5053931;28;20554;-78
2021/06/30 05:52:45;;;;;;;58.50;2.70;;;14.60;99.90;;;;;;5056697;28;20477;-78
2021/06/30 05:55:12;;;;;;;58.47;2.90;;;14.60;99.90;;;;;;5055169;28;20595;-78
2021/06/30 05:57:41;;;;;;;58.47;2.70;;;14.70;99.90;;;;;;5057669;28;20579;-78
2021/06/30 06:00:10;;;;;;;57.70;2.70;;;14.80;98.90;;;;;;5054804;28;20455;-78
2021/06/30 06:02:37;;;;;;;58.27;2.97;;;14.90;95.20;;;;;;5056155;28;20456;-78
2021/06/30 06:05:05;;;;;;;58.30;2.60;;;15.00;92.90;;;;;;5058148;28;20995;-78
2021/06/30 06:07:32;;;;;;;57.83;2.50;;;15.10;92.80;;;;;;5058707;28;20506;-78
2021/06/30 06:09:59;;;;;;;58.07;2.60;;;15.20;87.80;;;;;;5058231;28;20536;-78
2021/06/30 06:12:27;;;;;;;58.13;2.63;;;15.20;92.00;;;;;;5057526;28;20820;-78
2021/06/30 06:14:55;;;;;;;57.70;2.50;;;15.30;92.00;;;;;;5053949;28;20481;-78
2021/06/30 06:17:22;;;;;;;58.07;2.40;;;15.40;88.40;;;;;;5053211;28;20494;-78
2021/06/30 06:19:49;;;;;;;58.17;2.60;;;15.50;74.60;;;;;;5053314;28;20545;-77
2021/06/30 06:22:16;;;;;;;58.10;2.50;;;15.50;68.50;;;;;;5054032;28;20454;-78
2021/06/30 06:24:43;;;;;;;58.30;2.60;;;15.60;62.90;;;;;;5053565;28;20500;-78
2021/06/30 06:27:10;;;;;;;58.30;2.60;;;15.60;67.60;;;;;;5053770;28;20441;-78
2021/06/30 06:29:37;;;;;;;58.27;3.10;;;15.70;70.00;;;;;;5053746;28;20993;-77
2021/06/30 06:32:06;;;;;;;58.13;2.57;;;15.90;83.70;;;;;;5053092;28;20450;-78
2021/06/30 06:34:33;;;;;;;58.17;2.53;;;16.00;82.00;;;;;;5053879;28;20572;-77
2021/06/30 06:37:02;;;;;;;57.97;2.43;;;16.20;82.80;;;;;;5053680;28;20578;-78
2021/06/30 06:39:30;;;;;;;58.03;2.50;;;16.30;83.70;;;;;;5053982;28;20488;-78
2021/06/30 06:41:57;;;;;;;57.93;2.43;;;16.40;75.10;;;;;;5053072;28;20482;-78
2021/06/30 06:44:24;;;;;;;57.87;2.40;;;16.40;85.00;;;;;;5056997;28;20547;-78
2021/06/30 06:46:51;;;;;;;58.17;2.40;;;16.30;61.20;;;;;;5056983;28;20530;-78
2021/06/30 06:49:19;;;;;;;57.77;2.40;;;16.20;17.80;;;;;;5058075;28;20508;-77
2021/06/30 06:51:46;;;;;;;58.07;2.60;;;16.10;31.30;;;;;;5056515;28;20477;-78
2021/06/30 06:54:13;;;;;;;57.97;2.40;;;15.90;50.00;;;;;;5057220;28;20550;-78
2021/06/30 06:56:40;;;;;;;58.47;2.40;;;15.80;67.40;;;;;;5058528;28;20562;-78
2021/06/30 06:59:06;;;;;;;57.93;2.30;;;15.80;63.10;;;;;;5058000;28;20449;-78
2021/06/30 07:01:33;;;;;;;58.07;2.40;;;15.70;61.20;;;;;;5057055;28;20536;-78
2021/06/30 07:04:00;;;;;;;58.27;2.50;;;15.70;66.60;;;;;;5057927;28;21000;-78
2021/06/30 07:06:28;;;;;;;58.30;2.63;;;15.70;63.70;;;;;;5056350;28;20534;-77
2021/06/30 07:08:55;;;;;;;57.97;2.50;;;15.70;70.40;;;;;;5056786;28;20492;-78
2021/06/30 07:11:23;;;;;;;57.97;2.40;;;15.90;68.30;;;;;;5056781;28;20876;-77
2021/06/30 07:13:49;;;;;;;57.87;2.40;;;16.10;61.70;;;;;;5057075;28;20549;-78
2021/06/30 07:16:17;;;;;;;57.97;2.50;;;16.30;61.60;;;;;;5056687;28;20444;-78
2021/06/30 07:18:44;;;;;;;58.23;2.53;;;16.80;64.00;;;;;;5056418;28;20537;-78
2021/06/30 07:21:11;;;;;;;58.27;2.50;;;17.20;68.10;;;;;;5057033;28;20478;-77
2021/06/30 07:23:40;;;;;;;57.57;2.50;;;17.50;47.80;;;;;;5057336;28;20484;-78
2021/06/30 07:26:07;;;;;;;58.47;2.50;;;17.50;11.70;;;;;;5057932;28;20459;-78
2021/06/30 07:28:34;;;;;;;58.17;2.60;;;17.40;1.00;;;;;;5057292;28;20530;-78
2021/06/30 07:31:01;;;;;;;57.83;2.57;;;17.20;4.60;;;;;;5057306;28;20545;-78
2021/06/30 07:33:27;;;;;;;57.83;2.50;;;17.20;3.20;;;;;;5055114;28;20467;-78
2021/06/30 07:35:54;;;;;;;57.87;2.27;;;17.20;1.00;;;;;;5054856;28;20495;-77
2021/06/30 07:38:21;;;;;;;58.07;2.27;;;17.20;1.00;;;;;;5056191;28;20565;-77
2021/06/30 07:40:50;;;;;;;57.83;2.40;;;17.30;1.00;;;;;;5057952;28;20546;-78
2021/06/30 07:43:16;;;;;;;58.27;2.60;;;17.40;1.00;;;;;;5056384;28;20553;-77
2021/06/30 07:45:43;;;;;;;57.97;2.37;;;17.50;1.00;;;;;;5056282;28;21043;-77
2021/06/30 07:48:10;;;;;;;58.03;2.50;;;17.60;1.00;;;;;;5057015;28;20455;-78
2021/06/30 07:50:37;;;;;;;57.80;2.30;;;17.40;1.00;;;;;;5057344;28;20486;-78
2021/06/30 07:53:04;;;;;;;57.77;2.10;;;17.30;1.00;;;;;;5057387;28;20507;-78
2021/06/30 07:55:31;;;;;;;58.07;2.30;;;17.30;1.00;;;;;;5056520;28;20964;-79
2021/06/30 07:58:00;;;;;;;57.73;2.23;;;17.30;1.00;;;;;;5056554;28;20586;-78
2021/06/30 08:00:27;;;;;;;57.90;2.30;;;17.50;1.00;;;;;;5056001;28;20456;-78
2021/06/30 08:02:54;;;;;;;58.60;2.80;;;17.40;1.00;;;;;;5055010;28;20572;-78
2021/06/30 08:05:21;;;;;;;58.10;2.40;;;17.40;1.00;;;;;;5055498;28;20455;-77
2021/06/30 08:07:47;;;;;;;57.93;2.20;;;17.40;1.00;;;;;;5055221;28;21010;-77
2021/06/30 08:10:15;;;;;;;57.73;2.10;;;17.50;1.00;;;;;;5055801;28;20452;-78
2021/06/30 08:12:42;;;;;;;57.37;2.40;;;17.50;1.00;;;;;;5056352;28;20506;-78
2021/06/30 08:15:11;;;;;;;57.67;2.40;;;17.50;1.00;;;;;;5056060;28;20487;-78
2021/06/30 08:17:39;;;;;;;58.03;2.20;;;17.60;1.00;;;;;;5056337;28;20476;-77
2021/06/30 08:20:07;;;;;;;57.77;2.40;;;17.70;1.00;;;;;;5055176;28;20452;-78
2021/06/30 08:22:34;;;;;;;58.07;2.30;;;17.80;1.00;;;;;;5055816;28;20502;-77
2021/06/30 08:25:01;;;;;;;57.73;2.40;;;17.80;1.00;;;;;;5055746;28;20824;-77
2021/06/30 08:27:28;;;;;;;58.00;2.27;;;18.10;1.00;;;;;;5055849;28;20440;-78
2021/06/30 08:29:56;;;;;;;57.90;2.27;;;18.30;1.00;;;;;;5054053;28;20516;-77
2021/06/30 08:32:27;;;;;;;57.93;2.30;;;18.30;1.00;;;;;;5053315;28;20543;-77
2021/06/30 08:34:54;;;;;;;58.00;2.30;;;18.50;1.00;;;;;;5054290;28;20538;-77
2021/06/30 08:37:21;;;;;;;57.53;2.20;;;18.70;1.00;;;;;;5054008;28;20480;-77
2021/06/30 08:39:50;;;;;;;57.93;2.50;;;18.70;1.00;;;;;;5056331;28;20537;-77
2021/06/30 08:42:17;;;;;;;57.87;2.27;;;18.50;1.00;;;;;;5055119;28;20452;-78
2021/06/30 08:44:44;;;;;;;58.20;2.60;;;18.20;1.00;;;;;;5055019;28;20568;-76
2021/06/30 08:47:12;;;;;;;57.30;2.30;;;18.10;1.00;;;;;;5053958;28;20440;-77
2021/06/30 08:49:43;;;;;;;57.97;2.30;;;18.00;1.00;;;;;;5054517;28;20535;-77
2021/06/30 08:52:11;;;;;;;58.20;2.20;;;18.00;1.00;;;;;;5054619;28;20491;-77
2021/06/30 08:54:40;;;;;;;58.03;2.20;;;18.30;1.00;;;;;;5054235;28;20476;-78
2021/06/30 08:57:08;;;;;;;58.50;2.47;;;18.50;1.00;;;;;;5055254;28;21024;-77
2021/06/30 08:59:35;;;;;;;57.97;2.30;;;18.60;1.00;;;;;;5055591;28;20880;-77
2021/06/30 09:02:02;;;;;;;57.77;2.33;;;18.70;1.00;;;;;;5054511;28;20942;-77
2021/06/30 09:04:29;;;;;;;58.20;2.20;;;18.50;1.00;;;;;;5054080;28;20468;-77
2021/06/30 09:06:57;;;;;;;58.20;2.27;;;18.20;1.00;;;;;;5052175;28;20942;-77
2021/06/30 09:09:24;;;;;;;57.97;2.40;;;18.20;1.00;;;;;;5055106;28;20460;-77
2021/06/30 09:11:55;;;;;;;58.27;2.30;;;18.20;1.00;;;;;;5056376;28;20484;-79
2021/06/30 09:14:26;;;;;;;57.70;2.70;;;18.30;1.00;;;;;;5057574;28;20468;-78
2021/06/30 09:16:59;;;;;;;58.13;2.30;;;18.50;1.00;;;;;;5053885;28;20452;-78
2021/06/30 09:20:04;;;;;;;58.07;2.30;;;18.80;1.00;;;;;;5054860;28;20448;-77
2021/06/30 09:22:45;;;;;;;57.77;2.40;;;19.10;1.00;;;;;;5051682;28;20553;-77
2021/06/30 09:25:31;;;;;;;57.77;2.40;;;19.30;1.00;;;;;;5053212;28;20822;-77
2021/06/30 09:27:58;;;;;;;58.17;2.27;;;19.00;1.00;;;;;;5055304;28;20536;-77
2021/06/30 09:30:25;;;;;;;58.07;2.50;;;18.70;1.00;;;;;;5054292;28;20505;-77
2021/06/30 09:33:00;;;;;;;57.97;2.50;;;18.50;1.00;;;;;;5053123;28;20568;-78
2021/06/30 09:35:30;;;;;;;58.30;2.50;;;18.20;1.00;;;;;;5056123;28;20890;-78
2021/06/30 09:37:59;;;;;;;57.97;2.20;;;18.00;1.00;;;;;;5057348;28;20923;-78
2021/06/30 09:40:42;;;;;;;57.40;2.30;;;18.00;1.00;;;;;;5056570;28;20526;-77
2021/06/30 09:43:24;;;;;;;58.23;2.33;;;18.20;1.00;;;;;;5055246;28;20875;-78
2021/06/30 09:45:51;;;;;;;58.07;2.30;;;18.50;1.00;;;;;;5054673;28;21004;-78
2021/06/30 09:48:28;;;;;;;58.17;2.50;;;18.90;1.00;;;;;;5052859;28;20457;-77
2021/06/30 09:50:55;;;;;;;57.40;2.60;;;19.00;1.00;;;;;;5052049;28;20449;-77
2021/06/30 09:53:38;;;;;;;57.97;2.33;;;19.00;1.00;;;;;;5051889;28;20475;-77
2021/06/30 09:56:14;;;;;;;57.73;2.40;;;19.00;1.00;;;;;;5052535;28;20871;-77
2021/06/30 09:58:41;;;;;;;57.63;2.20;;;19.00;1.00;;;;;;5053333;28;20911;-77
2021/06/30 10:01:16;;;;;;;57.77;2.30;;;19.00;1.00;;;;;;5052980;28;21016;-77
2021/06/30 10:03:43;;;;;;;57.77;2.50;;;19.00;1.00;;;;;;5054806;28;20495;-77
2021/06/30 10:06:24;;;;;;;57.83;2.40;;;18.90;1.00;;;;;;5053561;28;20812;-78
2021/06/30 10:08:53;;;;;;;58.13;2.30;;;19.10;1.00;;;;;;5053464;28;20461;-78
2021/06/30 10:11:21;;;;;;;57.77;2.40;;;19.50;1.00;;;;;;5052004;28;20457;-78
2021/06/30 10:13:48;;;;;;;57.77;2.67;;;19.70;1.00;;;;;;5054587;28;20476;-78
2021/06/30 10:16:17;;;;;;;58.00;2.20;;;19.40;1.00;;;;;;5054168;28;20980;-78
2021/06/30 10:18:44;;;;;;;57.67;2.20;;;19.10;1.00;;;;;;5058382;28;20575;-79
2021/06/30 10:21:12;;;;;;;58.00;2.10;;;18.70;1.00;;;;;;5057408;28;20535;-78
2021/06/30 10:23:39;;;;;;;57.93;2.30;;;18.30;1.00;;;;;;5054515;28;20512;-78
2021/06/30 10:26:08;;;;;;;57.77;2.20;;;17.90;1.00;;;;;;5055023;28;20444;-77
2021/06/30 10:28:35;;;;;;;58.07;2.20;;;17.80;1.00;;;;;;5056189;28;20530;-79
2021/06/30 10:31:02;;;;;;;57.87;2.30;;;18.20;1.00;;;;;;5059839;28;20532;-79
2021/06/30 10:33:31;;;;;;;57.97;2.20;;;19.20;1.00;;;;;;5059422;28;20997;-79
2021/06/30 10:35:58;;;;;;;58.07;2.30;;;20.50;1.00;;;;;;5060893;28;20460;-79
2021/06/30 10:38:49;;;;;;;58.00;2.20;;;21.90;1.00;;;;;;5059781;28;20476;-79
2021/06/30 10:41:42;;;;;;;57.77;2.40;;;23.40;1.00;;;;;;5059777;28;20470;-78
2021/06/30 10:44:14;;;;;;;58.10;2.17;;;24.50;1.00;;;;;;5059382;28;20468;-79
2021/06/30 10:46:42;;;;;;;57.77;2.30;;;25.10;1.00;;;;;;5060488;28;20466;-78
2021/06/30 10:49:36;;;;;;;58.07;2.20;;;24.90;1.00;;;;;;5058197;28;20868;-78
2021/06/30 10:52:04;;;;;;;57.77;2.20;;;24.60;1.00;;;;;;5022055;28;20464;-75
2021/06/30 10:54:45;;;;;;;57.80;2.10;;;24.60;1.00;;;;;;5054642;28;20515;-76
2021/06/30 10:57:30;;;;;;;57.73;2.20;;;24.20;1.00;;;;;;5054716;28;20448;-75
2021/06/30 11:00:19;;;;;;;57.67;2.37;;;23.60;1.00;;;;;;5054775;28;20448;-75
2021/06/30 11:03:20;;;;;;;57.57;2.53;;;23.20;1.00;;;;;;5055091;28;20521;-77
2021/06/30 11:05:48;;;;;;;58.07;2.30;;;23.40;1.00;;;;;;5056318;28;20549;-78
2021/06/30 11:08:40;;;;;;;57.87;2.10;;;23.80;1.00;;;;;;5057963;28;20472;-78
2021/06/30 11:11:07;;;;;;;57.87;2.20;;;24.60;1.00;;;;;;5056272;28;20545;-78
2021/06/30 11:13:54;;;;;;;57.57;2.20;;;24.60;1.00;;;;;;5057228;28;20507;-77
2021/06/30 11:16:55;;;;;;;58.00;2.17;;;24.00;1.00;;;;;;5055073;28;20487;-77
2021/06/30 11:19:44;;;;;;;57.97;2.20;;;23.10;1.00;;;;;;5056008;28;20582;-77
2021/06/30 11:22:28;;;;;;;57.57;2.40;;;22.00;1.00;;;;;;5055167;28;20457;-77
2021/06/30 11:24:56;;;;;;;58.13;2.50;;;21.30;1.00;;;;;;5056826;28;20468;-78
2021/06/30 11:27:45;;;;;;;58.17;2.30;;;20.70;1.00;;;;;;5061673;28;20462;-78
2021/06/30 11:30:37;;;;;;;58.23;2.37;;;20.10;1.00;;;;;;5056658;28;20504;-78
2021/06/30 11:33:12;;;;;;;58.23;2.60;;;19.80;1.00;;;;;;5056843;28;20502;-78
2021/06/30 11:35:40;;;;;;;58.17;2.20;;;19.80;1.00;;;;;;5055755;28;20454;-78
2021/06/30 11:38:34;;;;;;;58.20;2.57;;;20.60;1.00;;;;;;5058345;28;20488;-78
2021/06/30 11:41:06;;;;;;;58.07;2.53;;;21.90;1.00;;;;;;5063894;28;20453;-77
2021/06/30 11:43:37;;;;;;;58.03;2.30;;;23.30;1.00;;;;;;5064148;28;20472;-78
2021/06/30 11:46:06;;;;;;;57.97;2.03;;;24.10;1.00;;;;;;5064123;28;20483;-78
2021/06/30 11:48:35;;;;;;;57.77;2.10;;;24.30;1.00;;;;;;5062215;28;20487;-77
2021/06/30 11:51:04;;;;;;;57.57;2.20;;;24.10;1.00;;;;;;5057864;28;20452;-75
2021/06/30 11:53:48;;;;;;;57.77;2.20;;;23.60;1.00;;;;;;5054565;28;20502;-77
2021/06/30 11:56:18;;;;;;;58.07;2.40;;;22.70;1.00;;;;;;5055204;28;20444;-77
2021/06/30 11:58:51;;;;;;;57.77;2.10;;;22.00;1.00;;;;;;5054353;28;20542;-77
2021/06/30 12:01:22;;;;;;;57.93;2.20;;;21.40;1.00;;;;;;5055210;28;20455;-77
2021/06/30 12:03:50;;;;;;;57.77;2.50;;;20.90;1.00;;;;;;5055798;28;20875;-78
2021/06/30 12:06:25;;;;;;;58.17;2.33;;;20.60;1.00;;;;;;5055643;28;20448;-78
2021/06/30 12:09:06;;;;;;;57.97;2.10;;;20.40;1.00;;;;;;5056707;28;20492;-78
2021/06/30 12:11:34;;;;;;;58.27;2.40;;;20.20;1.00;;;;;;5055617;28;20481;-78
2021/06/30 12:14:07;;;;;;;58.20;2.47;;;20.00;1.00;;;;;;5055271;28;20477;-77
2021/06/30 12:16:46;;;;;;;58.20;2.20;;;19.90;1.00;;;;;;5053999;28;20450;-78
2021/06/30 12:19:14;;;;;;;58.10;2.30;;;19.70;1.00;;;;;;5054078;28;20560;-77
2021/06/30 12:21:42;;;;;;;58.40;2.40;;;19.30;1.00;;;;;;5052937;28;20448;-74
2021/06/30 12:24:14;;;;;;;58.50;2.40;;;18.50;1.00;;;;;;5052619;28;20515;-75
2021/06/30 12:27:14;;;;;;;58.17;2.60;;;17.70;1.00;;;;;;5052883;28;20455;-77
2021/06/30 12:29:42;;;;;;;58.70;2.90;;;17.10;1.00;;;;;;4990758;28;20465;-77
2021/06/30 12:32:14;;;;;;;58.27;2.50;;;17.00;1.00;;;;;;4990961;28;20517;-76
2021/06/30 12:34:42;;;;;;;58.33;2.50;;;17.30;1.00;;;;;;5020687;28;20716;-76
2021/06/30 12:37:20;;;;;;;57.97;2.40;;;17.80;1.00;;;;;;5052829;28;20459;-77
2021/06/30 12:39:53;;;;;;;58.30;2.40;;;18.50;1.00;;;;;;5052499;28;21091;-77
2021/06/30 12:42:19;;;;;;;58.27;2.47;;;19.40;1.00;;;;;;5051538;28;20622;-77
2021/06/30 12:44:56;;;;;;;57.67;2.20;;;20.60;1.00;;;;;;5052485;28;20970;-75
2021/06/30 12:47:24;;;;;;;57.97;2.20;;;21.10;1.00;;;;;;5052586;28;20936;-75
2021/06/30 12:50:04;;;;;;;57.87;2.30;;;20.90;1.00;;;;;;5052508;28;21005;-76
2021/06/30 12:52:31;;;;;;;57.93;2.40;;;20.70;1.00;;;;;;5052215;28;20717;-75
2021/06/30 12:55:04;;;;;;;58.07;2.37;;;20.40;1.00;;;;;;5052390;28;20542;-76